Time;durP1;ratioP1;P1;durP2;ratioP2;P2;SDS_P1;SDS_P2;PMS_P1;PMS_P2;Temp;Humidity;BMP_temperature;BMP_pressure;BME280_temperature;BME280_humidity;BME280_pressure;Samples;Min_cycle;Max_cycle;Signal;HPM_P1;HPM_P2
2023/08/11 00:00:50;;;;;;;5.15;2.80;;;;;;;;;;5128424;27;20178;-58
2023/08/11 00:03:16;;;;;;;;;;;;;;;;;;5117292;27;20114;-59
2023/08/11 00:05:41;;;;;;;5.85;2.90;;;;;;;;;;5131203;27;19934;-59
2023/08/11 00:08:08;;;;;;;4.77;2.90;;;;;;;;;;5118697;27;20024;-57
2023/08/11 00:10:33;;;;;;;6.68;3.50;;;;;;;;;;5114752;27;20524;-61
2023/08/11 00:12:58;;;;;;;6.70;2.80;;;;;;;;;;5134553;27;20023;-57
2023/08/11 00:15:24;;;;;;;6.32;2.85;;;;;;;;;;5124948;27;20062;-59
2023/08/11 00:17:49;;;;;;;5.82;3.03;;;;;;;;;;5116178;27;20028;-59
2023/08/11 00:20:14;;;;;;;6.77;3.03;;;;;;;;;;5128734;27;20031;-59
2023/08/11 00:22:39;;;;;;;6.28;2.70;;;;;;;;;;5124212;27;20015;-59
2023/08/11 00:25:05;;;;;;;6.93;3.30;;;;;;;;;;5129258;27;20360;-59
2023/08/11 00:27:30;;;;;;;5.82;3.03;;;;;;;;;;5122545;27;20030;-59
2023/08/11 00:29:57;;;;;;;6.80;3.38;;;;;;;;;;5123980;27;20484;-59
2023/08/11 00:32:23;;;;;;;5.97;3.08;;;;;;;;;;5133984;27;20030;-58
2023/08/11 00:34:48;;;;;;;6.88;3.35;;;;;;;;;;5134733;27;20098;-58
2023/08/11 00:37:14;;;;;;;5.68;3.38;;;;;;;;;;5135683;27;20050;-59
2023/08/11 00:39:39;;;;;;;5.97;2.93;;;;;;;;;;5135951;27;20485;-57
2023/08/11 00:42:05;;;;;;;8.07;3.03;;;;;;;;;;5135140;27;20034;-59
2023/08/11 00:44:31;;;;;;;;;;;;;;;;;;5126235;27;20088;-58
2023/08/11 00:46:56;;;;;;;5.80;2.90;;;;;;;;;;5148900;27;19910;-59
2023/08/11 00:49:22;;;;;;;7.13;3.17;;;;;;;;;;5156398;27;20093;-59
2023/08/11 00:51:47;;;;;;;7.28;3.30;;;;;;;;;;5155695;27;20023;-58
2023/08/11 00:54:12;;;;;;;5.33;3.07;;;;;;;;;;5154909;27;20015;-58
2023/08/11 00:56:43;;;;;;;6.13;3.15;;;;;;;;;;5155280;27;20015;-59
2023/08/11 00:59:09;;;;;;;6.03;3.30;;;;;;;;;;5155504;27;20034;-58
2023/08/11 01:01:35;;;;;;;6.35;3.00;;;;;;;;;;5139839;27;20391;-58
2023/08/11 01:04:00;;;;;;;6.95;3.33;;;;;;;;;;5133959;27;20379;-59
2023/08/11 01:06:45;;;;;;;6.00;3.13;;;;;;;;;;5134867;27;20024;-59
2023/08/11 01:09:16;;;;;;;6.40;2.90;;;;;;;;;;5132957;27;20087;-59
2023/08/11 01:11:52;;;;;;;6.65;3.78;;;;;;;;;;5135255;27;20026;-58
2023/08/11 01:14:19;;;;;;;5.50;3.00;;;;;;;;;;5134873;27;20019;-58
2023/08/11 01:16:45;;;;;;;7.35;2.95;;;;;;;;;;5135576;27;20495;-58
2023/08/11 01:19:12;;;;;;;6.82;3.33;;;;;;;;;;5122181;27;20623;-58
2023/08/11 01:21:39;;;;;;;6.85;3.72;;;;;;;;;;5132135;27;20459;-59
2023/08/11 01:24:05;;;;;;;6.25;3.70;;;;;;;;;;5140371;27;20479;-59
2023/08/11 01:26:30;;;;;;;6.18;3.20;;;;;;;;;;5134466;27;20015;-58
2023/08/11 01:28:55;;;;;;;6.03;3.28;;;;;;;;;;5126341;27;20028;-59
2023/08/11 01:31:20;;;;;;;5.40;3.00;;;;;;;;;;5132443;27;20462;-59
2023/08/11 01:33:45;;;;;;;8.17;3.43;;;;;;;;;;5130668;27;20019;-59
2023/08/11 01:36:10;;;;;;;5.57;3.10;;;;;;;;;;5113527;28;20031;-58
2023/08/11 01:38:36;;;;;;;7.87;3.33;;;;;;;;;;5115658;27;20023;-59
2023/08/11 01:41:01;;;;;;;5.73;3.33;;;;;;;;;;5133917;27;20034;-58
2023/08/11 01:43:28;;;;;;;7.23;3.10;;;;;;;;;;5133193;27;20390;-58
2023/08/11 01:45:53;;;;;;;5.80;3.50;;;;;;;;;;5134609;27;20031;-59
2023/08/11 01:48:19;;;;;;;6.05;3.35;;;;;;;;;;5154516;27;20110;-58
2023/08/11 01:50:44;;;;;;;;;;;;;;;;;;5154876;27;20575;-58
2023/08/11 01:53:10;;;;;;;6.00;3.13;;;;;;;;;;5153966;27;19993;-58
2023/08/11 01:55:35;;;;;;;6.27;3.60;;;;;;;;;;5138861;27;20032;-59
2023/08/11 01:58:00;;;;;;;6.15;3.40;;;;;;;;;;5122002;27;20019;-58
2023/08/11 02:00:26;;;;;;;5.93;3.13;;;;;;;;;;5116071;27;20039;-58
2023/08/11 02:02:52;;;;;;;6.57;3.28;;;;;;;;;;5125618;27;20048;-58
2023/08/11 02:05:17;;;;;;;6.30;3.17;;;;;;;;;;5119658;27;20395;-58
2023/08/11 02:07:44;;;;;;;7.80;3.47;;;;;;;;;;5112647;28;20030;-58
2023/08/11 02:10:11;;;;;;;6.05;3.08;;;;;;;;;;5124740;27;20023;-58
2023/08/11 02:12:37;;;;;;;7.53;3.58;;;;;;;;;;5114845;27;20019;-58
2023/08/11 02:15:04;;;;;;;6.47;3.30;;;;;;;;;;5110588;27;20372;-58
2023/08/11 02:17:31;;;;;;;7.85;3.42;;;;;;;;;;5112626;28;20475;-59
2023/08/11 02:19:56;;;;;;;;;;;;;;;;;;5120157;27;20019;-59
2023/08/11 02:22:21;;;;;;;6.40;3.28;;;;;;;;;;5129256;27;19907;-59
2023/08/11 02:24:46;;;;;;;6.40;3.13;;;;;;;;;;5131710;27;20054;-58
2023/08/11 02:27:13;;;;;;;5.82;3.28;;;;;;;;;;5131045;27;20057;-59
2023/08/11 02:29:38;;;;;;;;;;;;;;;;;;5125991;27;20039;-58
2023/08/11 02:32:03;;;;;;;5.13;2.90;;;;;;;;;;5112877;27;19907;-58
2023/08/11 02:34:30;;;;;;;6.00;3.67;;;;;;;;;;5111530;28;20019;-59
2023/08/11 02:36:55;;;;;;;7.50;3.92;;;;;;;;;;5111880;27;20057;-58
2023/08/11 02:39:20;;;;;;;6.95;2.97;;;;;;;;;;5115865;27;20061;-58
2023/08/11 02:41:45;;;;;;;5.72;3.33;;;;;;;;;;5115731;27;20390;-59
2023/08/11 02:44:11;;;;;;;5.63;3.27;;;;;;;;;;5111656;27;20166;-58
2023/08/11 02:46:36;;;;;;;6.80;3.33;;;;;;;;;;5127130;27;20024;-58
2023/08/11 02:49:01;;;;;;;6.05;3.30;;;;;;;;;;5118003;27;20371;-58
2023/08/11 02:51:27;;;;;;;6.35;3.20;;;;;;;;;;5134340;27;20019;-58
2023/08/11 02:53:52;;;;;;;7.22;3.13;;;;;;;;;;5128052;27;20027;-58
2023/08/11 02:56:18;;;;;;;6.53;3.63;;;;;;;;;;5113471;28;20019;-59
2023/08/11 02:58:43;;;;;;;9.13;2.93;;;;;;;;;;5131067;27;20583;-59
2023/08/11 03:01:08;;;;;;;6.37;3.27;;;;;;;;;;5115212;27;20114;-59
2023/08/11 03:03:33;;;;;;;6.05;3.10;;;;;;;;;;5125219;27;20882;-58
2023/08/11 03:05:59;;;;;;;7.95;3.67;;;;;;;;;;5121862;27;20054;-59
2023/08/11 03:08:24;;;;;;;6.82;3.70;;;;;;;;;;5111568;28;20035;-58
2023/08/11 03:10:50;;;;;;;5.35;3.30;;;;;;;;;;5128085;27;20516;-59
2023/08/11 03:13:16;;;;;;;6.50;3.57;;;;;;;;;;5124791;27;20096;-59
2023/08/11 03:15:42;;;;;;;8.40;4.30;;;;;;;;;;5131472;27;20020;-57
2023/08/11 03:18:07;;;;;;;8.25;3.70;;;;;;;;;;5128625;27;20440;-59
2023/08/11 03:20:32;;;;;;;7.37;3.27;;;;;;;;;;5111432;28;20040;-57
2023/08/11 03:22:57;;;;;;;5.60;3.28;;;;;;;;;;5111062;27;20050;-58
2023/08/11 03:25:22;;;;;;;5.77;3.37;;;;;;;;;;5114521;27;20018;-59
2023/08/11 03:27:48;;;;;;;8.37;3.80;;;;;;;;;;5116986;27;20022;-59
2023/08/11 03:30:13;;;;;;;6.82;3.55;;;;;;;;;;5119997;27;20076;-59
2023/08/11 03:32:39;;;;;;;7.80;3.80;;;;;;;;;;5115433;27;20026;-58
2023/08/11 03:35:04;;;;;;;5.95;3.22;;;;;;;;;;5110436;28;20023;-58
2023/08/11 03:37:30;;;;;;;6.50;3.67;;;;;;;;;;5111041;28;20356;-58
2023/08/11 03:39:55;;;;;;;6.90;3.40;;;;;;;;;;5111344;28;20024;-59
2023/08/11 03:42:21;;;;;;;7.32;3.92;;;;;;;;;;5123747;28;20044;-60
2023/08/11 03:44:46;;;;;;;5.93;3.40;;;;;;;;;;5114113;28;20454;-59
2023/08/11 03:47:11;;;;;;;6.32;3.83;;;;;;;;;;5113041;27;20034;-60
2023/08/11 03:49:36;;;;;;;5.83;3.30;;;;;;;;;;5129755;28;20027;-59
2023/08/11 03:52:03;;;;;;;7.80;3.88;;;;;;;;;;5126748;27;20034;-59
2023/08/11 03:54:28;;;;;;;9.25;4.00;;;;;;;;;;5125003;28;20032;-59
2023/08/11 03:56:53;;;;;;;7.13;3.50;;;;;;;;;;5111017;28;20494;-59
2023/08/11 03:59:19;;;;;;;7.00;3.90;;;;;;;;;;5114587;28;20049;-58
2023/08/11 04:01:45;;;;;;;8.83;3.67;;;;;;;;;;5111024;28;20023;-58
2023/08/11 04:04:10;;;;;;;6.50;3.60;;;;;;;;;;5112665;28;20521;-60
2023/08/11 04:06:35;;;;;;;6.20;3.40;;;;;;;;;;5110733;28;20467;-60
2023/08/11 04:09:01;;;;;;;5.87;2.93;;;;;;;;;;5110831;28;20073;-59
2023/08/11 04:11:27;;;;;;;6.55;3.70;;;;;;;;;;5110758;28;20111;-59
2023/08/11 04:13:52;;;;;;;5.80;3.42;;;;;;;;;;5110236;28;20031;-59
2023/08/11 04:16:17;;;;;;;6.03;3.50;;;;;;;;;;5131045;28;20102;-59
2023/08/11 04:18:42;;;;;;;6.53;3.08;;;;;;;;;;5120258;28;20035;-59
2023/08/11 04:21:07;;;;;;;6.28;3.20;;;;;;;;;;5112953;27;20442;-58
2023/08/11 04:23:32;;;;;;;6.27;3.50;;;;;;;;;;5118726;28;20030;-58
2023/08/11 04:25:57;;;;;;;6.00;3.13;;;;;;;;;;5111639;28;20412;-59
2023/08/11 04:28:23;;;;;;;5.63;3.50;;;;;;;;;;5109566;28;20035;-59
2023/08/11 04:30:48;;;;;;;7.83;3.63;;;;;;;;;;5114208;28;20475;-58
2023/08/11 04:33:13;;;;;;;6.20;3.73;;;;;;;;;;5110076;28;20008;-57
2023/08/11 04:35:38;;;;;;;10.17;3.60;;;;;;;;;;5114383;28;20042;-59
2023/08/11 04:38:04;;;;;;;5.55;3.40;;;;;;;;;;5118708;28;20146;-59
2023/08/11 04:40:29;;;;;;;6.47;3.50;;;;;;;;;;5127046;27;20099;-59
2023/08/11 04:42:55;;;;;;;5.43;2.97;;;;;;;;;;5112878;27;20020;-59
2023/08/11 04:45:20;;;;;;;7.33;4.03;;;;;;;;;;5118123;27;20019;-58
2023/08/11 04:47:45;;;;;;;6.77;3.30;;;;;;;;;;5114539;28;20449;-60
2023/08/11 04:50:11;;;;;;;5.93;3.30;;;;;;;;;;5114399;27;20023;-57
2023/08/11 04:52:37;;;;;;;;;;;;;;;;;;5115462;28;20028;-60
2023/08/11 04:55:03;;;;;;;6.77;3.90;;;;;;;;;;5112973;27;20002;-59
2023/08/11 04:57:28;;;;;;;8.20;3.70;;;;;;;;;;5123508;27;20448;-57
2023/08/11 04:59:53;;;;;;;8.37;3.67;;;;;;;;;;5116799;27;20031;-59
2023/08/11 05:02:18;;;;;;;7.13;3.80;;;;;;;;;;5137500;27;20007;-59
2023/08/11 05:04:44;;;;;;;7.20;3.90;;;;;;;;;;5151945;27;20023;-58
2023/08/11 05:07:09;;;;;;;6.70;4.00;;;;;;;;;;5149808;27;20118;-59
2023/08/11 05:09:35;;;;;;;6.03;3.10;;;;;;;;;;5160532;27;20023;-57
2023/08/11 05:12:01;;;;;;;6.85;3.47;;;;;;;;;;5160011;27;20014;-60
2023/08/11 05:14:26;;;;;;;7.10;3.15;;;;;;;;;;5132263;27;20551;-59
2023/08/11 05:16:51;;;;;;;6.90;3.50;;;;;;;;;;5120102;27;20027;-58
2023/08/11 05:19:16;;;;;;;8.50;4.60;;;;;;;;;;5114564;27;20020;-59
2023/08/11 05:21:42;;;;;;;6.57;3.47;;;;;;;;;;5121743;27;20031;-59
2023/08/11 05:24:07;;;;;;;6.32;3.40;;;;;;;;;;5132099;27;20011;-59
2023/08/11 05:26:32;;;;;;;6.35;3.80;;;;;;;;;;5133422;27;20011;-59
2023/08/11 05:28:58;;;;;;;6.13;3.30;;;;;;;;;;5131286;27;20027;-58
2023/08/11 05:31:23;;;;;;;7.55;3.60;;;;;;;;;;5122548;27;20016;-58
2023/08/11 05:33:48;;;;;;;5.80;3.17;;;;;;;;;;5130145;27;20078;-58
2023/08/11 05:36:13;;;;;;;6.53;3.45;;;;;;;;;;5117518;27;20035;-59
2023/08/11 05:38:40;;;;;;;8.17;3.63;;;;;;;;;;5123586;27;20029;-58
2023/08/11 05:41:05;;;;;;;5.95;3.20;;;;;;;;;;5112886;27;20535;-59
2023/08/11 05:43:30;;;;;;;7.60;3.90;;;;;;;;;;5112109;27;20031;-58
2023/08/11 05:45:55;;;;;;;7.43;3.57;;;;;;;;;;5109397;28;20024;-58
2023/08/11 05:48:20;;;;;;;6.50;3.20;;;;;;;;;;5109840;27;20114;-58
2023/08/11 05:50:46;;;;;;;7.63;3.50;;;;;;;;;;5119433;27;20056;-61
2023/08/11 05:53:11;;;;;;;8.57;3.23;;;;;;;;;;5115217;27;20084;-61
2023/08/11 05:55:37;;;;;;;8.40;3.50;;;;;;;;;;5113320;27;20106;-58
2023/08/11 05:58:02;;;;;;;6.77;3.43;;;;;;;;;;5123638;27;20015;-59
2023/08/11 06:00:27;;;;;;;8.00;3.60;;;;;;;;;;5111998;27;20042;-58
2023/08/11 06:02:52;;;;;;;7.43;3.73;;;;;;;;;;5109553;27;20027;-58
2023/08/11 06:05:21;;;;;;;7.13;3.57;;;;;;;;;;5123148;27;20038;-58
2023/08/11 06:07:46;;;;;;;7.05;4.28;;;;;;;;;;5127822;27;20027;-59
2023/08/11 06:10:11;;;;;;;7.33;3.70;;;;;;;;;;5123937;27;20023;-60
2023/08/11 06:12:37;;;;;;;6.40;3.63;;;;;;;;;;5109171;27;20076;-59
2023/08/11 06:15:03;;;;;;;5.80;3.50;;;;;;;;;;5113995;27;20053;-61
2023/08/11 06:17:28;;;;;;;8.00;4.00;;;;;;;;;;5119970;27;20023;-59
2023/08/11 06:19:54;;;;;;;7.27;3.57;;;;;;;;;;5117947;27;20042;-60
2023/08/11 06:22:19;;;;;;;6.03;3.80;;;;;;;;;;5118233;27;20104;-59
2023/08/11 06:24:44;;;;;;;5.80;3.63;;;;;;;;;;5129042;27;20026;-59
2023/08/11 06:27:09;;;;;;;6.97;3.00;;;;;;;;;;5116859;27;20518;-59
2023/08/11 06:29:35;;;;;;;6.50;3.20;;;;;;;;;;5109140;28;20034;-58
2023/08/11 06:32:00;;;;;;;6.07;3.20;;;;;;;;;;5124199;27;20024;-58
2023/08/11 06:34:25;;;;;;;9.73;4.18;;;;;;;;;;5123678;27;20023;-58
2023/08/11 06:36:50;;;;;;;8.48;3.78;;;;;;;;;;5108869;28;20027;-58
2023/08/11 06:39:16;;;;;;;6.70;3.33;;;;;;;;;;5108958;28;20087;-59
2023/08/11 06:41:41;;;;;;;5.82;3.05;;;;;;;;;;5108478;27;20414;-57
2023/08/11 06:44:06;;;;;;;6.67;3.10;;;;;;;;;;5118466;27;20417;-60
2023/08/11 06:46:32;;;;;;;10.18;3.50;;;;;;;;;;5129304;27;20076;-60
2023/08/11 06:48:57;;;;;;;6.32;2.95;;;;;;;;;;5124578;27;20466;-59
2023/08/11 06:51:22;;;;;;;6.63;3.70;;;;;;;;;;5114406;27;20144;-57
2023/08/11 06:53:47;;;;;;;8.43;3.40;;;;;;;;;;5111037;28;20023;-57
2023/08/11 06:56:12;;;;;;;7.10;3.00;;;;;;;;;;5118131;27;20023;-60
2023/08/11 06:58:37;;;;;;;8.07;3.70;;;;;;;;;;5111105;27;20034;-59
2023/08/11 07:01:03;;;;;;;7.28;3.65;;;;;;;;;;5117808;27;20016;-59
2023/08/11 07:03:28;;;;;;;5.75;2.90;;;;;;;;;;5110537;27;20402;-59
2023/08/11 07:05:53;;;;;;;6.50;3.00;;;;;;;;;;5110005;28;20023;-59
2023/08/11 07:08:19;;;;;;;8.93;3.30;;;;;;;;;;5114372;27;20019;-60
2023/08/11 07:10:44;;;;;;;6.65;3.40;;;;;;;;;;5111627;28;20019;-59
2023/08/11 07:13:09;;;;;;;6.10;2.95;;;;;;;;;;5111229;27;20042;-61
2023/08/11 07:15:34;;;;;;;7.07;2.87;;;;;;;;;;5111653;27;20073;-59
2023/08/11 07:18:00;;;;;;;6.97;3.20;;;;;;;;;;5111695;27;20086;-59
2023/08/11 07:20:25;;;;;;;6.60;3.50;;;;;;;;;;5111563;28;20020;-59
2023/08/11 07:22:51;;;;;;;7.83;2.83;;;;;;;;;;5127153;27;20023;-59
2023/08/11 07:25:16;;;;;;;7.63;3.30;;;;;;;;;;5131814;27;20416;-60
2023/08/11 07:27:41;;;;;;;6.63;3.00;;;;;;;;;;5132237;27;20542;-60
2023/08/11 07:30:07;;;;;;;5.28;3.10;;;;;;;;;;5131647;27;20023;-59
2023/08/11 07:32:32;;;;;;;7.55;3.05;;;;;;;;;;5131350;27;20023;-59
2023/08/11 07:34:57;;;;;;;5.43;2.87;;;;;;;;;;5131366;27;20022;-61
2023/08/11 07:37:22;;;;;;;6.93;3.50;;;;;;;;;;5131795;28;20023;-59
2023/08/11 07:39:47;;;;;;;6.83;2.80;;;;;;;;;;5131887;27;20382;-58
2023/08/11 07:42:13;;;;;;;7.55;3.42;;;;;;;;;;5131354;28;20114;-59
2023/08/11 07:44:38;;;;;;;6.70;3.40;;;;;;;;;;5131323;27;20030;-58
2023/08/11 07:47:03;;;;;;;7.07;2.97;;;;;;;;;;5131374;28;20019;-59
2023/08/11 07:49:29;;;;;;;6.77;2.90;;;;;;;;;;5131523;28;20034;-60
2023/08/11 07:51:54;;;;;;;6.23;3.03;;;;;;;;;;5131570;28;20050;-59
2023/08/11 07:54:19;;;;;;;5.10;2.80;;;;;;;;;;5131494;27;20016;-59
2023/08/11 07:56:45;;;;;;;7.00;2.97;;;;;;;;;;5129081;28;20448;-59
2023/08/11 07:59:11;;;;;;;5.88;3.05;;;;;;;;;;5111535;27;20051;-58
2023/08/11 08:01:36;;;;;;;6.78;3.10;;;;;;;;;;5118923;28;20046;-58
2023/08/11 08:04:02;;;;;;;6.65;2.80;;;;;;;;;;5126368;27;20055;-58
2023/08/11 08:06:27;;;;;;;6.85;2.60;;;;;;;;;;5112954;28;20035;-59
2023/08/11 08:08:52;;;;;;;5.93;3.20;;;;;;;;;;5111255;28;20474;-58
2023/08/11 08:11:18;;;;;;;8.23;3.47;;;;;;;;;;5111971;28;20046;-58
2023/08/11 08:13:43;;;;;;;9.73;2.63;;;;;;;;;;5110517;28;20535;-60
2023/08/11 08:16:08;;;;;;;7.13;3.00;;;;;;;;;;5110762;28;20016;-59
2023/08/11 08:18:33;;;;;;;8.43;3.03;;;;;;;;;;5114198;28;20021;-60
2023/08/11 08:20:58;;;;;;;6.45;2.50;;;;;;;;;;5123635;27;20172;-60
2023/08/11 08:23:23;;;;;;;8.77;2.92;;;;;;;;;;5135953;27;20387;-58
2023/08/11 08:25:48;;;;;;;5.13;2.50;;;;;;;;;;5135920;27;20023;-59
2023/08/11 08:28:14;;;;;;;5.80;2.33;;;;;;;;;;5134717;27;20038;-58
2023/08/11 08:30:39;;;;;;;6.20;2.45;;;;;;;;;;5135152;27;20022;-60
2023/08/11 08:33:06;;;;;;;6.53;2.40;;;;;;;;;;5134857;27;20015;-58
2023/08/11 08:35:31;;;;;;;6.70;2.00;;;;;;;;;;5134918;27;20026;-58
2023/08/11 08:37:56;;;;;;;7.63;2.15;;;;;;;;;;5136630;27;20075;-58
2023/08/11 08:40:21;;;;;;;5.43;2.17;;;;;;;;;;5136210;27;20106;-59
2023/08/11 08:42:47;;;;;;;7.28;2.28;;;;;;;;;;5135625;27;20434;-58
2023/08/11 08:45:13;;;;;;;6.37;2.23;;;;;;;;;;5135296;27;20050;-59
2023/08/11 08:47:39;;;;;;;5.95;2.00;;;;;;;;;;5136901;27;20023;-57
2023/08/11 08:50:05;;;;;;;6.00;2.20;;;;;;;;;;5135717;27;20011;-59
2023/08/11 08:52:30;;;;;;;4.43;1.80;;;;;;;;;;5134671;27;20027;-61
2023/08/11 08:54:56;;;;;;;5.80;1.87;;;;;;;;;;5133957;27;20102;-58
2023/08/11 08:57:23;;;;;;;5.22;2.22;;;;;;;;;;5134710;27;20019;-58
2023/08/11 08:59:48;;;;;;;6.70;1.90;;;;;;;;;;5134400;27;20503;-58
2023/08/11 09:02:13;;;;;;;4.20;1.70;;;;;;;;;;5134225;27;20055;-58
2023/08/11 09:04:39;;;;;;;4.57;1.80;;;;;;;;;;5133926;27;20035;-59
2023/08/11 09:07:04;;;;;;;6.32;1.70;;;;;;;;;;5134481;27;20033;-57
2023/08/11 09:09:30;;;;;;;6.20;1.70;;;;;;;;;;5134261;27;20023;-61
2023/08/11 09:11:55;;;;;;;4.78;1.55;;;;;;;;;;5115355;27;20081;-59
2023/08/11 09:14:20;;;;;;;6.40;1.80;;;;;;;;;;5113214;28;20036;-59
2023/08/11 09:16:46;;;;;;;5.82;1.80;;;;;;;;;;5113721;28;20076;-60
2023/08/11 09:19:12;;;;;;;4.78;1.52;;;;;;;;;;5117292;27;20386;-59
2023/08/11 09:21:39;;;;;;;7.07;1.75;;;;;;;;;;5134326;27;20026;-60
2023/08/11 09:24:09;;;;;;;6.47;1.88;;;;;;;;;;5133353;27;20016;-59
2023/08/11 09:26:34;;;;;;;9.77;1.80;;;;;;;;;;5134023;27;20027;-60
2023/08/11 09:28:59;;;;;;;6.07;1.90;;;;;;;;;;5132516;27;20083;-58
2023/08/11 09:31:24;;;;;;;5.20;1.90;;;;;;;;;;5133904;27;20034;-58
2023/08/11 09:33:50;;;;;;;4.43;1.83;;;;;;;;;;5132888;27;20030;-59
2023/08/11 09:36:17;;;;;;;5.53;1.85;;;;;;;;;;5134041;27;20031;-57
2023/08/11 09:38:42;;;;;;;5.00;2.08;;;;;;;;;;5133775;27;20030;-60
2023/08/11 09:41:08;;;;;;;5.15;1.83;;;;;;;;;;5133916;27;20015;-58
2023/08/11 09:43:34;;;;;;;6.30;1.98;;;;;;;;;;5133125;27;20034;-58
2023/08/11 09:45:59;;;;;;;5.82;1.90;;;;;;;;;;5133440;27;20478;-59
2023/08/11 09:48:26;;;;;;;6.47;1.90;;;;;;;;;;5130236;27;20015;-58
2023/08/11 09:50:51;;;;;;;4.10;1.77;;;;;;;;;;5113060;28;20023;-58
2023/08/11 09:53:16;;;;;;;5.53;1.77;;;;;;;;;;5112259;28;20196;-57
2023/08/11 09:55:42;;;;;;;4.87;1.70;;;;;;;;;;5111556;27;20985;-58
2023/08/11 09:58:08;;;;;;;4.85;1.67;;;;;;;;;;5114933;27;20363;-58
2023/08/11 10:00:33;;;;;;;5.28;2.05;;;;;;;;;;5112576;28;20016;-58
2023/08/11 10:03:00;;;;;;;5.87;1.90;;;;;;;;;;5112256;27;20085;-59
2023/08/11 10:05:26;;;;;;;4.65;2.03;;;;;;;;;;5113116;28;20024;-58
2023/08/11 10:07:52;;;;;;;4.90;1.80;;;;;;;;;;5112569;28;20032;-60
2023/08/11 10:10:19;;;;;;;5.97;1.83;;;;;;;;;;5112814;28;20019;-61
2023/08/11 10:12:47;;;;;;;4.97;1.80;;;;;;;;;;5112333;28;20103;-58
2023/08/11 10:15:13;;;;;;;4.47;2.00;;;;;;;;;;5111713;28;20066;-59
2023/08/11 10:17:38;;;;;;;;;;;;;;;;;;5113269;28;20024;-57
2023/08/11 10:20:05;;;;;;;4.82;1.70;;;;;;;;;;5132180;27;19911;-59
2023/08/11 10:22:33;;;;;;;5.78;1.67;;;;;;;;;;5132500;27;20055;-61
2023/08/11 10:25:04;;;;;;;5.40;1.90;;;;;;;;;;5129388;27;20364;-58
2023/08/11 10:27:29;;;;;;;4.28;1.65;;;;;;;;;;5132828;27;20054;-58
2023/08/11 10:29:55;;;;;;;4.97;1.75;;;;;;;;;;5122469;27;20465;-58
2023/08/11 10:32:22;;;;;;;5.47;1.95;;;;;;;;;;5114858;27;20399;-60
2023/08/11 10:34:49;;;;;;;6.75;2.10;;;;;;;;;;5112402;28;20019;-57
2023/08/11 10:37:14;;;;;;;4.10;1.75;;;;;;;;;;5113162;28;20016;-59
2023/08/11 10:39:39;;;;;;;7.83;1.60;;;;;;;;;;5112980;28;20026;-59
2023/08/11 10:42:06;;;;;;;4.68;1.90;;;;;;;;;;5113145;28;20024;-61
2023/08/11 10:44:32;;;;;;;5.80;1.70;;;;;;;;;;5112023;28;20031;-58
2023/08/11 10:46:58;;;;;;;;;;;;;;;;;;5112523;28;20016;-60
2023/08/11 10:49:32;;;;;;;4.65;1.70;;;;;;;;;;5111862;28;19904;-59
2023/08/11 10:51:58;;;;;;;4.35;1.55;;;;;;;;;;5112892;28;20417;-59
2023/08/11 10:54:23;;;;;;;4.75;1.60;;;;;;;;;;5112304;28;20015;-59
2023/08/11 10:56:50;;;;;;;4.68;1.45;;;;;;;;;;5113707;28;20020;-58
2023/08/11 10:59:17;;;;;;;7.30;1.70;;;;;;;;;;5111978;27;20029;-60
2023/08/11 11:01:45;;;;;;;4.68;1.50;;;;;;;;;;5111995;28;20027;-59
2023/08/11 11:04:11;;;;;;;4.47;1.52;;;;;;;;;;5113392;27;20698;-58
2023/08/11 11:06:37;;;;;;;5.97;1.80;;;;;;;;;;5111603;28;20023;-58
2023/08/11 11:09:03;;;;;;;4.00;1.65;;;;;;;;;;5111330;28;20016;-59
2023/08/11 11:11:28;;;;;;;5.35;1.60;;;;;;;;;;5111534;28;20011;-58
2023/08/11 11:13:54;;;;;;;4.00;1.55;;;;;;;;;;5111055;28;20015;-58
2023/08/11 11:16:20;;;;;;;4.78;1.85;;;;;;;;;;5111435;28;20049;-59
2023/08/11 11:18:48;;;;;;;5.53;1.30;;;;;;;;;;5129212;27;20019;-58
2023/08/11 11:21:14;;;;;;;5.20;1.60;;;;;;;;;;5131807;27;20467;-58
2023/08/11 11:23:46;;;;;;;4.07;1.42;;;;;;;;;;5131403;27;20039;-59
2023/08/11 11:26:13;;;;;;;4.45;1.90;;;;;;;;;;5131497;27;20482;-60
2023/08/11 11:28:38;;;;;;;3.55;1.52;;;;;;;;;;5131947;27;20023;-59
2023/08/11 11:31:03;;;;;;;5.13;1.40;;;;;;;;;;5130979;27;20016;-60
2023/08/11 11:33:30;;;;;;;4.47;1.40;;;;;;;;;;5111438;28;20487;-59
2023/08/11 11:35:55;;;;;;;5.30;1.30;;;;;;;;;;5111805;28;20016;-59
2023/08/11 11:38:20;;;;;;;4.97;1.30;;;;;;;;;;5111309;28;20054;-59
2023/08/11 11:40:48;;;;;;;3.83;1.45;;;;;;;;;;5110895;28;20472;-59
2023/08/11 11:43:13;;;;;;;4.72;1.45;;;;;;;;;;5110674;28;20503;-59
2023/08/11 11:45:39;;;;;;;3.13;1.47;;;;;;;;;;5112197;28;20027;-60
2023/08/11 11:48:04;;;;;;;3.90;1.20;;;;;;;;;;5110511;28;20035;-59
2023/08/11 11:50:29;;;;;;;5.13;1.47;;;;;;;;;;5111001;28;20092;-61
2023/08/11 11:52:55;;;;;;;3.43;1.30;;;;;;;;;;5113666;28;20032;-59
2023/08/11 11:55:20;;;;;;;5.07;1.37;;;;;;;;;;5114689;28;20035;-59
2023/08/11 11:57:45;;;;;;;5.40;1.53;;;;;;;;;;5115726;28;20068;-58
2023/08/11 12:00:16;;;;;;;3.63;1.30;;;;;;;;;;5115362;28;20044;-60
2023/08/11 12:02:41;;;;;;;5.03;1.45;;;;;;;;;;5115261;28;20034;-58
2023/08/11 12:05:08;;;;;;;5.13;1.38;;;;;;;;;;5115793;28;20019;-59
2023/08/11 12:07:34;;;;;;;4.85;1.48;;;;;;;;;;5116111;28;20077;-58
2023/08/11 12:09:59;;;;;;;4.03;1.40;;;;;;;;;;5116384;28;20348;-58
2023/08/11 12:12:28;;;;;;;3.80;1.50;;;;;;;;;;5116560;28;20039;-60
2023/08/11 12:14:53;;;;;;;6.00;1.40;;;;;;;;;;5116312;28;20034;-58
2023/08/11 12:17:20;;;;;;;4.05;1.20;;;;;;;;;;5124753;27;20015;-57
2023/08/11 12:19:46;;;;;;;6.75;1.40;;;;;;;;;;5135568;27;20459;-60
2023/08/11 12:22:11;;;;;;;4.38;1.48;;;;;;;;;;5135084;27;20088;-60
2023/08/11 12:24:36;;;;;;;;;;;;;;;;;;5135207;27;20019;-60
2023/08/11 12:27:01;;;;;;;4.47;1.70;;;;;;;;;;5135414;27;19918;-58
2023/08/11 12:29:26;;;;;;;4.40;1.50;;;;;;;;;;5135279;27;20038;-59
2023/08/11 12:31:52;;;;;;;5.10;1.60;;;;;;;;;;5135119;27;20022;-57
2023/08/11 12:34:17;;;;;;;5.17;1.37;;;;;;;;;;5134526;27;20110;-58
2023/08/11 12:36:42;;;;;;;;;;;;;;;;;;5126719;27;20102;-60
2023/08/11 12:39:07;;;;;;;5.10;1.70;;;;;;;;;;5114489;28;19949;-60
2023/08/11 12:41:32;;;;;;;7.03;1.67;;;;;;;;;;5114354;28;20433;-60
2023/08/11 12:43:58;;;;;;;4.82;1.40;;;;;;;;;;5113856;28;20022;-58
2023/08/11 12:46:23;;;;;;;5.10;1.60;;;;;;;;;;5114065;28;20027;-58
2023/08/11 12:48:48;;;;;;;6.63;1.60;;;;;;;;;;5114354;28;20030;-58
2023/08/11 12:51:13;;;;;;;5.13;1.60;;;;;;;;;;5114129;28;20792;-59
2023/08/11 12:53:39;;;;;;;6.87;1.50;;;;;;;;;;5113644;28;20115;-60
2023/08/11 12:56:04;;;;;;;4.03;1.40;;;;;;;;;;5114423;28;20447;-58
2023/08/11 12:58:29;;;;;;;;;;;;;;;;;;5114772;28;20137;-59
2023/08/11 13:00:54;;;;;;;3.78;1.30;;;;;;;;;;5114110;28;19904;-59
2023/08/11 13:03:19;;;;;;;6.17;1.77;;;;;;;;;;5113439;28;20030;-60
2023/08/11 13:05:44;;;;;;;4.10;1.40;;;;;;;;;;5114252;28;20097;-59
2023/08/11 13:08:10;;;;;;;;;;;;;;;;;;5114994;28;20028;-61
2023/08/11 13:10:35;;;;;;;3.73;1.40;;;;;;;;;;5113999;28;19910;-60
2023/08/11 13:13:01;;;;;;;;;;;;;;;;;;5115556;28;20027;-60
2023/08/11 13:15:26;;;;;;;4.00;1.40;;;;;;;;;;5114152;28;19904;-60
2023/08/11 13:17:51;;;;;;;;;;;;;;;;;;5131537;27;20055;-59
2023/08/11 13:20:16;;;;;;;3.90;1.50;;;;;;;;;;5134560;27;19908;-60
2023/08/11 13:22:42;;;;;;;4.03;1.40;;;;;;;;;;5133891;27;20019;-60
2023/08/11 13:25:07;;;;;;;;;;;;;;;;;;5134588;27;20023;-59
2023/08/11 13:27:32;;;;;;;5.80;1.60;;;;;;;;;;5133841;27;20370;-59
2023/08/11 13:29:57;;;;;;;5.00;1.40;;;;;;;;;;5134174;27;20018;-59
2023/08/11 13:32:22;;;;;;;;;;;;;;;;;;5134299;27;20420;-60
2023/08/11 13:34:48;;;;;;;5.07;1.48;;;;;;;;;;5133517;27;20377;-59
2023/08/11 13:37:13;;;;;;;4.20;1.40;;;;;;;;;;5133826;27;20065;-59
2023/08/11 13:39:38;;;;;;;;;;;;;;;;;;5134401;27;20023;-59
2023/08/11 13:42:03;;;;;;;4.13;1.75;;;;;;;;;;5131439;27;19971;-60
2023/08/11 13:44:28;;;;;;;3.57;1.33;;;;;;;;;;5114871;27;20016;-57
2023/08/11 13:46:53;;;;;;;;;;;;;;;;;;5114112;28;20030;-60
2023/08/11 13:49:18;;;;;;;4.70;1.55;;;;;;;;;;5113435;28;19912;-59
2023/08/11 13:51:44;;;;;;;;;;;;;;;;;;5113842;28;20084;-58
2023/08/11 13:54:09;;;;;;;4.70;1.33;;;;;;;;;;5112135;28;19907;-57
2023/08/11 13:56:34;;;;;;;3.70;1.40;;;;;;;;;;5113063;28;20019;-59
2023/08/11 13:58:59;;;;;;;;;;;;;;;;;;5113889;28;20093;-59
2023/08/11 14:01:25;;;;;;;6.55;1.33;;;;;;;;;;5113502;28;19904;-58
2023/08/11 14:03:50;;;;;;;;;;;;;;;;;;5112855;28;20019;-60
2023/08/11 14:06:15;;;;;;;3.88;1.45;;;;;;;;;;5111861;28;19998;-58
2023/08/11 14:08:40;;;;;;;3.77;1.23;;;;;;;;;;5129712;27;20038;-59
2023/08/11 14:11:05;;;;;;;;;;;;;;;;;;5134401;27;20023;-60
2023/08/11 14:13:30;;;;;;;4.60;1.20;;;;;;;;;;5129735;27;20328;-60
2023/08/11 14:15:56;;;;;;;;;;;;;;;;;;5125875;27;20034;-58
2023/08/11 14:18:21;;;;;;;3.47;1.30;;;;;;;;;;5132562;27;19907;-58
2023/08/11 14:20:46;;;;;;;;;;;;;;;;;;5134104;27;20046;-58
2023/08/11 14:23:11;;;;;;;3.28;1.40;;;;;;;;;;5133207;27;20348;-59
2023/08/11 14:25:36;;;;;;;5.93;1.53;;;;;;;;;;5133094;27;20019;-58
2023/08/11 14:28:02;;;;;;;5.40;1.42;;;;;;;;;;5112618;27;20038;-58
2023/08/11 14:30:27;;;;;;;;;;;;;;;;;;5113479;28;20095;-59
2023/08/11 14:32:52;;;;;;;3.65;1.40;;;;;;;;;;5112688;28;19927;-58
2023/08/11 14:35:17;;;;;;;;;;;;;;;;;;5113144;28;20471;-57
2023/08/11 14:37:43;;;;;;;3.97;1.50;;;;;;;;;;5112299;28;20440;-59
2023/08/11 14:40:08;;;;;;;4.63;1.43;;;;;;;;;;5112635;28;20023;-60